Time,TemperatureF,DewpointF,PressureIn,WindDirection,WindDirectionDegrees,WindSpeedMPH,WindSpeedGustMPH,Humidity,HourlyPrecipIn,Conditions,Clouds,dailyrainin,SolarRadiationWatts/m^2,SoftwareType,DateUTC
2013-10-26 00:04:00,44.0,42.0,-100.00,West,259,1.0,1.0,92,0.00,,,0.00,0.000000,,2013-10-26 04:04:00,
2013-10-26 00:24:00,44.0,42.0,-100.00,West,259,1.0,1.0,92,0.00,,,0.00,0.000000,,2013-10-26 04:24:00,
2013-10-26 00:34:00,44.0,42.0,-100.00,West,259,1.0,1.0,92,0.00,,,0.00,0.000000,,2013-10-26 04:34:00,
2013-10-26 00:44:00,44.0,42.0,-100.00,West,259,1.0,1.0,92,0.00,,,0.00,0.000000,,2013-10-26 04:44:00,
2013-10-26 00:54:00,44.0,42.0,-100.00,West,259,1.0,1.0,92,0.00,,,0.00,0.000000,,2013-10-26 04:54:00,
2013-10-26 01:43:00,43.0,41.0,-100.00,WNW,287,0.0,1.0,94,0.00,,,0.00,0.000000,,2013-10-26 05:43:00,
2013-10-26 01:52:00,43.0,41.0,-100.00,WNW,287,0.0,1.0,94,0.00,,,0.00,0.000000,,2013-10-26 05:52:00,
2013-10-26 02:02:00,43.0,41.0,-100.00,WNW,287,0.0,1.0,94,0.00,,,0.00,0.000000,,2013-10-26 06:02:00,
2013-10-26 02:42:00,42.0,41.0,-100.00,West,278,0.0,2.0,96,0.00,,,0.00,0.000000,,2013-10-26 06:42:00,
2013-10-26 02:52:00,42.0,41.0,-100.00,West,278,0.0,2.0,96,0.00,,,0.00,0.000000,,2013-10-26 06:52:00,
2013-10-26 03:02:00,42.0,41.0,-100.00,West,278,0.0,2.0,96,0.00,,,0.00,0.000000,,2013-10-26 07:02:00,
2013-10-26 03:42:00,42.0,41.0,-100.00,WNW,289,0.0,2.0,96,0.00,,,0.00,0.000000,,2013-10-26 07:42:00,
2013-10-26 03:52:00,42.0,41.0,-100.00,WNW,289,0.0,2.0,96,0.00,,,0.00,0.000000,,2013-10-26 07:52:00,
2013-10-26 04:02:00,42.0,41.0,-100.00,WNW,289,0.0,2.0,96,0.00,,,0.00,0.000000,,2013-10-26 08:02:00,
2013-10-26 04:22:00,41.0,40.0,-100.00,NNE,13,0.0,1.0,96,0.00,,,0.00,0.000000,,2013-10-26 08:22:00,
2013-10-26 04:32:00,41.0,40.0,-100.00,NNE,13,0.0,1.0,96,0.00,,,0.00,0.000000,,2013-10-26 08:32:00,
2013-10-26 04:42:00,41.0,40.0,-100.00,NNE,13,0.0,1.0,96,0.00,,,0.00,0.000000,,2013-10-26 08:42:00,
2013-10-26 04:52:00,41.0,40.0,-100.00,NNE,13,0.0,1.0,96,0.00,,,0.00,0.000000,,2013-10-26 08:52:00,
2013-10-26 05:02:00,41.0,40.0,-100.00,NNE,13,0.0,1.0,96,0.00,,,0.00,0.000000,,2013-10-26 09:02:00,
2013-10-26 05:43:00,41.0,40.0,-100.00,NNW,339,0.0,2.0,95,0.00,,,0.00,0.000000,,2013-10-26 09:43:00,
2013-10-26 05:53:00,41.0,40.0,-100.00,NNW,339,0.0,2.0,95,0.00,,,0.00,0.000000,,2013-10-26 09:53:00,
2013-10-26 06:03:00,41.0,40.0,-100.00,NNW,339,0.0,2.0,95,0.00,,,0.00,0.000000,,2013-10-26 10:03:00,
2013-10-26 06:42:00,41.0,40.0,-100.00,NW,326,0.0,0.0,96,0.00,,,0.00,0.000000,,2013-10-26 10:42:00,
2013-10-26 06:53:00,41.0,40.0,-100.00,NW,326,0.0,0.0,96,0.00,,,0.00,0.000000,,2013-10-26 10:53:00,
2013-10-26 07:03:00,41.0,40.0,-100.00,NW,326,0.0,0.0,96,0.00,,,0.00,0.000000,,2013-10-26 11:03:00,
2013-10-26 07:42:00,40.0,39.0,-100.00,NE,44,1.0,2.0,96,0.00,,,0.00,0.000000,,2013-10-26 11:42:00,
2013-10-26 07:52:00,40.0,39.0,-100.00,NE,44,1.0,2.0,96,0.00,,,0.00,0.000000,,2013-10-26 11:52:00,
2013-10-26 08:01:00,40.0,39.0,-100.00,NE,44,1.0,2.0,96,0.00,,,0.00,0.000000,,2013-10-26 12:01:00,
2013-10-26 08:42:00,42.0,40.0,-100.00,ENE,77,1.0,4.0,93,0.00,,,0.00,5.000000,,2013-10-26 12:42:00,
2013-10-26 08:52:00,42.0,40.0,-100.00,ENE,77,1.0,4.0,93,0.00,,,0.00,5.000000,,2013-10-26 12:52:00,
2013-10-26 09:01:00,42.0,40.0,-100.00,ENE,77,1.0,4.0,93,0.00,,,0.00,5.000000,,2013-10-26 13:01:00,
2013-10-26 09:22:00,50.0,43.0,-100.00,ENE,66,2.0,5.0,78,0.00,,,0.00,88.000000,,2013-10-26 13:22:00,
2013-10-26 09:32:00,50.0,43.0,-100.00,ENE,66,2.0,5.0,78,0.00,,,0.00,88.000000,,2013-10-26 13:32:00,
2013-10-26 09:42:00,50.0,43.0,-100.00,ENE,66,2.0,5.0,78,0.00,,,0.00,88.000000,,2013-10-26 13:42:00,
2013-10-26 09:52:00,50.0,43.0,-100.00,ENE,66,2.0,5.0,78,0.00,,,0.00,88.000000,,2013-10-26 13:52:00,
2013-10-26 10:02:00,50.0,43.0,-100.00,ENE,66,2.0,5.0,78,0.00,,,0.00,88.000000,,2013-10-26 14:02:00,
2013-10-26 10:42:00,55.0,42.0,-100.00,NE,54,4.0,8.0,61,0.00,,,0.00,83.000000,,2013-10-26 14:42:00,
2013-10-26 10:52:00,55.0,42.0,-100.00,NE,54,4.0,8.0,61,0.00,,,0.00,83.000000,,2013-10-26 14:52:00,
2013-10-26 11:02:00,55.0,42.0,-100.00,NE,54,4.0,8.0,61,0.00,,,0.00,83.000000,,2013-10-26 15:02:00,
2013-10-26 11:04:00,61.0,44.0,-100.00,ENE,69,4.0,10.0,54,0.00,,,0.00,507.000000,,2013-10-26 15:04:00,
2013-10-26 11:44:00,61.0,44.0,-100.00,ENE,69,4.0,10.0,54,0.00,,,0.00,507.000000,,2013-10-26 15:44:00,
2013-10-26 11:55:00,61.0,44.0,-100.00,ENE,69,4.0,10.0,54,0.00,,,0.00,507.000000,,2013-10-26 15:55:00,
2013-10-26 12:44:00,64.0,47.0,-100.00,NE,46,4.0,10.0,53,0.00,,,0.00,694.000000,,2013-10-26 16:44:00,
2013-10-26 12:54:00,64.0,47.0,-100.00,NE,46,4.0,10.0,53,0.00,,,0.00,694.000000,,2013-10-26 16:54:00,
2013-10-26 13:03:00,64.0,47.0,-100.00,NE,46,4.0,10.0,53,0.00,,,0.00,694.000000,,2013-10-26 17:03:00,
2013-10-26 13:43:00,67.0,48.0,-100.00,NE,40,4.0,10.0,50,0.00,,,0.00,809.000000,,2013-10-26 17:43:00,
2013-10-26 13:52:00,67.0,48.0,-100.00,NE,40,4.0,10.0,50,0.00,,,0.00,809.000000,,2013-10-26 17:52:00,
2013-10-26 14:02:00,67.0,48.0,-100.00,NE,40,4.0,10.0,50,0.00,,,0.00,809.000000,,2013-10-26 18:02:00,
2013-10-26 14:42:00,70.0,48.0,-100.00,ESE,119,3.0,8.0,46,0.00,,,0.00,813.000000,,2013-10-26 18:42:00,
2013-10-26 14:52:00,70.0,48.0,-100.00,ESE,119,3.0,8.0,46,0.00,,,0.00,813.000000,,2013-10-26 18:52:00,
2013-10-26 15:01:00,70.0,48.0,-100.00,ESE,119,3.0,8.0,46,0.00,,,0.00,813.000000,,2013-10-26 19:01:00,
2013-10-26 15:42:00,67.0,44.0,-100.00,West,266,4.0,6.0,43,0.00,,,0.00,611.000000,,2013-10-26 19:42:00,
2013-10-26 15:52:00,67.0,44.0,-100.00,West,266,4.0,6.0,43,0.00,,,0.00,611.000000,,2013-10-26 19:52:00,
2013-10-26 16:02:00,67.0,44.0,-100.00,West,266,4.0,6.0,43,0.00,,,0.00,611.000000,,2013-10-26 20:02:00,
2013-10-26 16:43:00,70.0,46.0,-100.00,South,172,3.0,8.0,42,0.00,,,0.00,562.000000,,2013-10-26 20:43:00,
2013-10-26 16:52:00,70.0,46.0,-100.00,South,172,3.0,8.0,42,0.00,,,0.00,562.000000,,2013-10-26 20:52:00,
2013-10-26 17:02:00,70.0,46.0,-100.00,South,172,3.0,8.0,42,0.00,,,0.00,562.000000,,2013-10-26 21:02:00,
2013-10-26 17:43:00,69.0,46.0,-100.00,West,266,4.0,7.0,43,0.00,,,0.00,429.000000,,2013-10-26 21:43:00,
2013-10-26 17:55:00,69.0,46.0,-100.00,West,266,4.0,7.0,43,0.00,,,0.00,429.000000,,2013-10-26 21:55:00,
2013-10-26 18:03:00,69.0,46.0,-100.00,West,266,4.0,7.0,43,0.00,,,0.00,429.000000,,2013-10-26 22:03:00,
2013-10-26 18:44:00,64.0,44.0,-100.00,WNW,291,1.0,6.0,49,0.00,,,0.00,178.000000,,2013-10-26 22:44:00,
2013-10-26 18:54:00,64.0,44.0,-100.00,WNW,291,1.0,6.0,49,0.00,,,0.00,178.000000,,2013-10-26 22:54:00,
2013-10-26 19:03:00,64.0,44.0,-100.00,WNW,291,1.0,6.0,49,0.00,,,0.00,178.000000,,2013-10-26 23:03:00,
2013-10-26 19:42:00,56.0,50.0,-100.00,WNW,301,0.0,2.0,79,0.00,,,0.00,10.000000,,2013-10-26 23:42:00,
2013-10-26 19:52:00,56.0,50.0,-100.00,WNW,301,0.0,2.0,79,0.00,,,0.00,10.000000,,2013-10-26 23:52:00,
2013-10-26 20:02:00,56.0,50.0,-100.00,WNW,301,0.0,2.0,79,0.00,,,0.00,10.000000,,2013-10-27 00:02:00,
2013-10-26 20:22:00,53.0,49.0,-100.00,SSW,205,1.0,2.0,87,0.00,,,0.00,0.000000,,2013-10-27 00:22:00,
2013-10-26 20:32:00,53.0,49.0,-100.00,SSW,205,1.0,2.0,87,0.00,,,0.00,0.000000,,2013-10-27 00:32:00,
2013-10-26 20:42:00,53.0,49.0,-100.00,SSW,205,1.0,2.0,87,0.00,,,0.00,0.000000,,2013-10-27 00:42:00,
2013-10-26 20:52:00,53.0,49.0,-100.00,SSW,205,1.0,2.0,87,0.00,,,0.00,0.000000,,2013-10-27 00:52:00,
2013-10-26 21:02:00,53.0,49.0,-100.00,SSW,205,1.0,2.0,87,0.00,,,0.00,0.000000,,2013-10-27 01:02:00,
2013-10-26 21:42:00,50.0,48.0,-100.00,SSW,194,1.0,2.0,94,0.00,,,0.00,0.000000,,2013-10-27 01:42:00,
2013-10-26 21:52:00,50.0,48.0,-100.00,SSW,194,1.0,2.0,94,0.00,,,0.00,0.000000,,2013-10-27 01:52:00,
2013-10-26 22:02:00,50.0,48.0,-100.00,SSW,194,1.0,2.0,94,0.00,,,0.00,0.000000,,2013-10-27 02:02:00,
2013-10-26 22:42:00,48.0,47.0,-100.00,ESE,106,0.0,2.0,96,0.00,,,0.00,0.000000,,2013-10-27 02:42:00,
2013-10-26 22:52:00,48.0,47.0,-100.00,ESE,106,0.0,2.0,96,0.00,,,0.00,0.000000,,2013-10-27 02:52:00,
2013-10-26 23:02:00,48.0,47.0,-100.00,ESE,106,0.0,2.0,96,0.00,,,0.00,0.000000,,2013-10-27 03:02:00,
2013-10-26 23:45:00,47.0,46.0,-100.00,West,260,0.0,0.0,97,0.00,,,0.00,0.000000,,2013-10-27 03:45:00,
2013-10-26 23:55:00,47.0,46.0,-100.00,West,260,0.0,0.0,97,0.00,,,0.00,0.000000,,2013-10-27 03:55:00,